Time;durP1;ratioP1;P1;durP2;ratioP2;P2;SDS_P1;SDS_P2;PMS_P1;PMS_P2;Temp;Humidity;BMP_temperature;BMP_pressure;BME280_temperature;BME280_humidity;BME280_pressure;Samples;Min_cycle;Max_cycle;Signal;HPM_P1;HPM_P2
2022/03/21 00:01:58;;;;;;;39.83;25.67;;;3.30;99.90;;;;;;5081217;28;20011;-76
2022/03/21 00:04:24;;;;;;;40.37;25.63;;;3.20;99.90;;;;;;5100426;27;20012;-76
2022/03/21 00:06:50;;;;;;;36.47;24.67;;;3.20;99.90;;;;;;5066798;28;20020;-76
2022/03/21 00:09:17;;;;;;;40.23;24.73;;;3.20;99.90;;;;;;5082897;28;20109;-76
2022/03/21 00:11:44;;;;;;;42.03;26.40;;;3.20;99.90;;;;;;5097910;27;20023;-76
2022/03/21 00:14:11;;;;;;;42.33;26.87;;;3.20;99.90;;;;;;5082094;28;20378;-76
2022/03/21 00:16:39;;;;;;;36.00;25.20;;;3.20;99.90;;;;;;5100247;28;20019;-75
2022/03/21 00:19:06;;;;;;;36.80;24.53;;;3.20;99.90;;;;;;5082252;28;20047;-75
2022/03/21 00:21:34;;;;;;;39.10;25.63;;;3.20;99.90;;;;;;5096388;27;20016;-77
2022/03/21 00:24:02;;;;;;;35.80;24.27;;;3.20;99.90;;;;;;5066059;28;20040;-77
2022/03/21 00:26:28;;;;;;;36.37;23.73;;;3.30;99.90;;;;;;5100018;28;22877;-77
2022/03/21 00:28:55;;;;;;;39.63;24.77;;;3.30;99.90;;;;;;5099576;28;20390;-75
2022/03/21 00:31:21;;;;;;;38.00;24.37;;;3.30;99.90;;;;;;5079177;28;20032;-75
2022/03/21 00:33:49;;;;;;;36.10;23.90;;;3.30;99.90;;;;;;5081614;28;20023;-75
2022/03/21 00:36:16;;;;;;;39.20;25.37;;;3.30;99.90;;;;;;5079185;28;20378;-75
2022/03/21 00:38:43;;;;;;;37.67;23.23;;;3.30;99.90;;;;;;5080829;28;20031;-75
2022/03/21 00:41:10;;;;;;;35.47;23.67;;;3.30;99.90;;;;;;5094001;28;20009;-74
2022/03/21 00:43:36;;;;;;;36.00;23.90;;;3.20;99.90;;;;;;5082153;28;20027;-74
2022/03/21 00:46:03;;;;;;;35.67;22.50;;;3.10;99.90;;;;;;5080261;28;20023;-75
2022/03/21 00:48:30;;;;;;;38.03;24.87;;;3.10;99.90;;;;;;5081301;28;20072;-75
2022/03/21 00:50:58;;;;;;;40.30;25.23;;;3.10;99.90;;;;;;5093805;28;20024;-75
2022/03/21 00:53:25;;;;;;;38.10;25.27;;;3.00;99.90;;;;;;5066801;28;20039;-77
2022/03/21 00:55:52;;;;;;;42.20;25.67;;;3.00;99.90;;;;;;5080234;28;20348;-75
2022/03/21 00:58:19;;;;;;;38.00;24.90;;;3.00;99.90;;;;;;5096790;28;20040;-75
2022/03/21 01:00:46;;;;;;;37.30;24.23;;;3.00;99.90;;;;;;5075576;28;20022;-75
2022/03/21 01:03:13;;;;;;;38.47;24.80;;;3.00;99.90;;;;;;5078558;28;20400;-75
2022/03/21 01:05:40;;;;;;;40.87;25.10;;;3.00;99.90;;;;;;5099250;28;20035;-75
2022/03/21 01:08:06;;;;;;;38.20;24.50;;;3.00;99.90;;;;;;5098706;28;20031;-75
2022/03/21 01:10:33;;;;;;;36.77;23.50;;;3.00;99.90;;;;;;5073390;28;20034;-75
2022/03/21 01:13:00;;;;;;;32.13;22.13;;;3.00;99.90;;;;;;5097976;28;20027;-75
2022/03/21 01:15:28;;;;;;;35.70;23.87;;;3.00;99.90;;;;;;5079655;28;20390;-75
2022/03/21 01:17:55;;;;;;;38.50;23.63;;;2.90;99.90;;;;;;5099342;28;20098;-75
2022/03/21 01:20:23;;;;;;;37.50;23.73;;;2.90;99.90;;;;;;5093678;28;20016;-75
2022/03/21 01:22:50;;;;;;;36.67;22.77;;;2.90;99.90;;;;;;5079482;28;20028;-75
2022/03/21 01:25:18;;;;;;;38.37;23.97;;;2.90;99.90;;;;;;5097944;28;20365;-75
2022/03/21 01:27:44;;;;;;;37.87;23.63;;;2.90;99.90;;;;;;5098867;28;20043;-75
2022/03/21 01:30:12;;;;;;;37.30;24.40;;;2.80;99.90;;;;;;5078944;28;20051;-75
2022/03/21 01:32:42;;;;;;;36.20;24.07;;;2.90;99.90;;;;;;5066676;27;20512;-75
2022/03/21 01:35:10;;;;;;;38.70;23.70;;;2.80;99.90;;;;;;5082552;28;20026;-75
2022/03/21 01:37:36;;;;;;;38.80;24.30;;;2.80;99.90;;;;;;5101380;27;20039;-77
2022/03/21 01:40:03;;;;;;;37.37;24.17;;;2.80;99.90;;;;;;5094434;27;20371;-75
2022/03/21 01:42:30;;;;;;;37.87;23.80;;;2.90;99.90;;;;;;5100660;27;20055;-77
2022/03/21 01:44:57;;;;;;;31.90;21.23;;;2.80;99.90;;;;;;5083232;27;20019;-77
2022/03/21 01:47:27;;;;;;;41.83;25.77;;;2.80;99.90;;;;;;5082083;27;20038;-77
2022/03/21 01:49:55;;;;;;;37.83;25.27;;;2.80;99.90;;;;;;5096315;27;20016;-77
2022/03/21 01:52:21;;;;;;;36.00;24.03;;;2.80;99.90;;;;;;5081622;28;20015;-75
2022/03/21 01:57:34;;;;;;;32.30;21.47;;;2.80;99.90;;;;;;5100137;27;20022;-75
2022/03/21 02:00:01;;;;;;;30.53;20.20;;;2.70;99.90;;;;;;5083101;27;20493;-75
2022/03/21 02:02:27;;;;;;;34.73;20.33;;;2.70;99.90;;;;;;5082049;27;20018;-75
2022/03/21 02:04:53;;;;;;;31.53;20.40;;;2.70;99.90;;;;;;5104569;27;20016;-75
2022/03/21 02:07:20;;;;;;;33.90;20.80;;;2.70;99.90;;;;;;5087844;27;20038;-77
2022/03/21 02:09:46;;;;;;;32.57;20.40;;;2.70;99.90;;;;;;5068454;27;20050;-77
2022/03/21 02:12:14;;;;;;;32.53;20.97;;;2.70;99.90;;;;;;5081993;27;20031;-77
2022/03/21 02:14:41;;;;;;;32.57;19.43;;;2.70;99.90;;;;;;5086646;27;20475;-77
2022/03/21 02:17:10;;;;;;;33.60;20.10;;;2.70;99.90;;;;;;5107832;27;20028;-77
2022/03/21 02:19:38;;;;;;;34.10;21.60;;;2.60;99.90;;;;;;5083094;27;20062;-77
2022/03/21 02:22:15;;;;;;;32.07;20.10;;;2.60;99.90;;;;;;5104126;27;20032;-77
2022/03/21 02:25:02;;;;;;;29.83;18.87;;;2.60;99.90;;;;;;5106901;27;20023;-77
2022/03/21 02:27:31;;;;;;;31.53;20.27;;;2.60;99.90;;;;;;5087039;27;20031;-77
2022/03/21 02:29:59;;;;;;;31.13;18.80;;;2.60;99.90;;;;;;5081590;27;20027;-77
2022/03/21 02:32:27;;;;;;;30.13;18.57;;;2.60;99.90;;;;;;5086006;27;20028;-77
2022/03/21 02:34:56;;;;;;;27.33;17.43;;;2.60;99.90;;;;;;5085412;27;20028;-78
2022/03/21 02:37:25;;;;;;;26.90;17.63;;;2.50;99.90;;;;;;5082063;27;20035;-75
2022/03/21 02:39:53;;;;;;;26.80;17.50;;;2.50;99.90;;;;;;5101201;27;20027;-75
2022/03/21 02:42:19;;;;;;;23.53;15.83;;;2.50;99.90;;;;;;5084277;28;20036;-75
2022/03/21 02:44:45;;;;;;;31.27;18.20;;;2.50;99.90;;;;;;5102733;27;20035;-75
2022/03/21 02:47:12;;;;;;;25.67;16.40;;;2.50;99.90;;;;;;5102529;27;20032;-75
2022/03/21 02:49:38;;;;;;;25.50;15.60;;;2.40;99.90;;;;;;5084442;27;20394;-76
2022/03/21 02:52:06;;;;;;;26.13;15.73;;;2.40;99.90;;;;;;5102985;27;20027;-75
2022/03/21 02:54:33;;;;;;;25.70;15.70;;;2.40;99.90;;;;;;5103555;27;20046;-75
2022/03/21 02:57:01;;;;;;;23.30;15.07;;;2.40;99.90;;;;;;5066416;28;20383;-75
2022/03/21 02:59:28;;;;;;;26.17;15.87;;;2.40;99.90;;;;;;5067108;28;20028;-75
2022/03/21 03:01:54;;;;;;;25.73;14.07;;;2.40;99.90;;;;;;5101897;27;20057;-75
2022/03/21 03:04:22;;;;;;;23.70;14.63;;;2.40;99.90;;;;;;5105111;27;20039;-75
2022/03/21 03:06:48;;;;;;;22.67;14.60;;;2.40;99.90;;;;;;5083550;27;20049;-75
2022/03/21 03:09:14;;;;;;;25.97;14.97;;;2.30;99.90;;;;;;5102242;28;20031;-75
2022/03/21 03:11:41;;;;;;;23.60;13.93;;;2.30;99.90;;;;;;5045323;28;20344;-77
2022/03/21 03:14:08;;;;;;;25.67;15.27;;;2.30;99.90;;;;;;5062301;27;20027;-77
2022/03/21 03:16:35;;;;;;;22.43;14.87;;;2.30;99.90;;;;;;5068207;28;20028;-75
2022/03/21 03:19:02;;;;;;;22.83;14.17;;;2.30;99.90;;;;;;5101944;27;20039;-75
2022/03/21 03:21:41;;;;;;;27.93;14.67;;;2.30;99.90;;;;;;5062575;28;20024;-75
2022/03/21 03:24:10;;;;;;;26.20;14.87;;;2.30;99.90;;;;;;5105390;27;20057;-76
2022/03/21 03:26:37;;;;;;;25.30;13.93;;;2.30;99.90;;;;;;5103070;27;20026;-75
2022/03/21 03:29:04;;;;;;;22.30;13.67;;;2.30;99.90;;;;;;5080670;28;20036;-75
2022/03/21 03:31:31;;;;;;;22.13;13.83;;;2.40;99.90;;;;;;5078374;28;20027;-77
2022/03/21 03:33:58;;;;;;;23.50;13.77;;;2.40;99.90;;;;;;5099144;28;20022;-76
2022/03/21 03:36:24;;;;;;;19.80;12.07;;;2.40;99.90;;;;;;5064945;28;20031;-76
2022/03/21 03:38:51;;;;;;;20.43;12.73;;;2.40;99.90;;;;;;5068760;27;20529;-76
2022/03/21 03:41:18;;;;;;;25.47;13.50;;;2.40;99.90;;;;;;5077082;28;20047;-76
2022/03/21 03:43:44;;;;;;;21.53;12.57;;;2.40;99.90;;;;;;5080038;27;20024;-76
2022/03/21 03:46:11;;;;;;;24.27;13.47;;;2.40;99.90;;;;;;5078287;27;20024;-76
2022/03/21 03:48:38;;;;;;;23.33;13.47;;;2.40;99.90;;;;;;5102219;27;20031;-76
2022/03/21 03:51:05;;;;;;;19.63;11.83;;;2.40;99.90;;;;;;5042810;28;20028;-76
2022/03/21 03:53:31;;;;;;;22.67;11.73;;;2.40;99.90;;;;;;5097040;27;20019;-75
2022/03/21 03:55:58;;;;;;;20.30;12.20;;;2.40;99.90;;;;;;5084322;28;20022;-76
2022/03/21 03:58:24;;;;;;;17.63;10.13;;;2.30;99.90;;;;;;5050048;27;20031;-76
2022/03/21 04:00:51;;;;;;;20.23;12.80;;;2.30;99.90;;;;;;5077134;28;20825;-76
2022/03/21 04:06:04;;;;;;;17.07;10.67;;;2.40;99.90;;;;;;5082074;28;20034;-75
2022/03/21 04:08:30;;;;;;;19.43;11.33;;;2.40;99.90;;;;;;5099587;27;20038;-76
2022/03/21 04:10:57;;;;;;;18.97;11.23;;;2.30;99.90;;;;;;5096271;27;20023;-76
2022/03/21 04:13:23;;;;;;;20.63;11.93;;;2.30;99.90;;;;;;5063301;27;20478;-76
2022/03/21 04:15:49;;;;;;;17.10;11.10;;;2.20;99.90;;;;;;5066447;28;20065;-76
2022/03/21 04:18:16;;;;;;;18.43;11.13;;;2.20;99.90;;;;;;5099436;27;20038;-76
2022/03/21 04:20:42;;;;;;;17.50;11.10;;;2.30;99.90;;;;;;5061853;27;20024;-76
2022/03/21 04:23:12;;;;;;;15.90;9.70;;;2.30;99.90;;;;;;5097434;28;20019;-76
2022/03/21 04:25:38;;;;;;;19.33;11.37;;;2.20;99.90;;;;;;5099095;27;20031;-76
2022/03/21 04:28:09;;;;;;;20.37;11.20;;;2.30;99.90;;;;;;5051105;28;20038;-75
2022/03/21 04:30:37;;;;;;;20.90;11.50;;;2.20;99.90;;;;;;5056172;28;20039;-76
2022/03/21 04:33:09;;;;;;;17.23;11.17;;;2.30;99.90;;;;;;5064333;28;20024;-76
2022/03/21 04:35:36;;;;;;;17.63;9.93;;;2.30;99.90;;;;;;5097301;28;21497;-76
2022/03/21 04:38:04;;;;;;;19.00;10.13;;;2.30;99.90;;;;;;5098600;27;20023;-76
2022/03/21 04:40:30;;;;;;;17.80;10.17;;;2.30;99.90;;;;;;5059294;28;20372;-75
2022/03/21 04:42:56;;;;;;;19.60;10.60;;;2.20;99.90;;;;;;5097893;28;20051;-74
2022/03/21 04:45:23;;;;;;;19.17;11.07;;;2.20;99.90;;;;;;5079528;28;20050;-74
2022/03/21 04:47:49;;;;;;;18.20;11.53;;;2.20;99.90;;;;;;5081140;28;20032;-75
2022/03/21 04:50:16;;;;;;;22.03;11.73;;;2.10;99.90;;;;;;5093897;28;20383;-75
2022/03/21 04:52:42;;;;;;;20.63;11.23;;;2.10;99.90;;;;;;5078191;28;20050;-74
2022/03/21 04:55:09;;;;;;;17.93;11.53;;;2.10;99.90;;;;;;5080620;28;20047;-74
2022/03/21 04:57:35;;;;;;;21.93;11.37;;;2.10;99.90;;;;;;5098594;28;20020;-75
2022/03/21 05:00:06;;;;;;;20.17;11.47;;;2.10;99.90;;;;;;5075475;28;20028;-76
2022/03/21 05:02:32;;;;;;;20.47;11.57;;;2.00;99.90;;;;;;5065274;28;20470;-76
2022/03/21 05:04:58;;;;;;;17.87;11.23;;;2.00;99.90;;;;;;5079582;28;20047;-76
2022/03/21 05:07:25;;;;;;;19.77;11.67;;;2.00;99.90;;;;;;5084883;28;20505;-77
2022/03/21 05:09:52;;;;;;;15.90;9.57;;;2.00;99.90;;;;;;5082152;27;20521;-76
2022/03/21 05:12:19;;;;;;;17.67;11.50;;;2.00;99.90;;;;;;5085229;27;20020;-76
2022/03/21 05:14:45;;;;;;;19.07;10.80;;;2.10;99.90;;;;;;5069159;28;20016;-76
2022/03/21 05:17:12;;;;;;;18.77;11.13;;;2.00;99.90;;;;;;5050820;28;20035;-76
2022/03/21 05:19:39;;;;;;;18.93;11.13;;;2.10;99.90;;;;;;5103154;27;20062;-76
2022/03/21 05:22:06;;;;;;;19.40;10.97;;;2.10;99.90;;;;;;5101761;27;20031;-76
2022/03/21 05:35:52;;;;;;;18.90;11.63;;;2.20;99.90;;;;;;5104494;27;20351;-76
2022/03/21 05:35:57;;;;;;;15.93;9.50;;;2.20;99.90;;;;;;5101418;28;20061;-76
2022/03/21 05:38:26;;;;;;;19.97;10.50;;;2.20;99.90;;;;;;5085277;28;20019;-76
2022/03/21 05:40:56;;;;;;;18.07;10.17;;;2.20;99.90;;;;;;5100824;27;20473;-76
2022/03/21 05:43:24;;;;;;;17.80;9.93;;;2.20;99.90;;;;;;5100308;27;20019;-76
2022/03/21 05:45:52;;;;;;;17.33;9.90;;;2.20;99.90;;;;;;5102894;27;20024;-76
2022/03/21 05:51:05;;;;;;;14.53;8.70;;;2.10;99.90;;;;;;5099953;27;20344;-76
2022/03/21 05:53:32;;;;;;;14.57;8.30;;;2.10;99.90;;;;;;5105086;27;20026;-75
2022/03/21 05:56:00;;;;;;;15.87;8.93;;;2.20;99.90;;;;;;5105087;27;20018;-75
2022/03/21 05:58:27;;;;;;;17.23;9.27;;;2.20;99.90;;;;;;5104059;28;20435;-76
2022/03/21 06:00:55;;;;;;;14.63;8.87;;;2.20;99.90;;;;;;5080646;27;21263;-76
2022/03/21 06:03:22;;;;;;;17.30;10.40;;;2.20;99.90;;;;;;5087288;27;20016;-75
2022/03/21 06:05:49;;;;;;;15.60;8.43;;;2.30;99.90;;;;;;5086118;27;20027;-75
2022/03/21 06:08:15;;;;;;;16.00;9.00;;;2.40;99.90;;;;;;5100717;27;20455;-76
2022/03/21 06:10:42;;;;;;;17.07;9.67;;;2.50;99.90;;;;;;5063223;27;20050;-76
2022/03/21 06:13:09;;;;;;;16.00;9.93;;;2.50;99.90;;;;;;5084532;27;21039;-75
2022/03/21 06:15:39;;;;;;;15.17;9.73;;;2.70;99.90;;;;;;5084655;27;20028;-76
2022/03/21 06:18:10;;;;;;;18.53;9.87;;;2.70;99.90;;;;;;5086025;27;20028;-76
2022/03/21 06:20:39;;;;;;;21.00;11.43;;;2.80;99.90;;;;;;5077280;28;20039;-75
2022/03/21 06:23:06;;;;;;;19.10;10.97;;;3.00;99.90;;;;;;5083817;27;20028;-76
2022/03/21 06:25:35;;;;;;;21.07;12.00;;;3.20;99.90;;;;;;5101452;27;20007;-75
2022/03/21 06:28:01;;;;;;;18.37;11.40;;;3.30;99.90;;;;;;5104096;27;20050;-75
2022/03/21 06:30:29;;;;;;;22.07;13.50;;;3.40;99.90;;;;;;5098104;27;20028;-77
2022/03/21 06:32:55;;;;;;;22.43;13.40;;;3.60;99.90;;;;;;5079323;28;20047;-74
2022/03/21 06:35:21;;;;;;;23.97;14.17;;;3.70;99.90;;;;;;5098832;27;20023;-74
2022/03/21 06:37:48;;;;;;;33.17;17.43;;;3.90;99.90;;;;;;5081174;27;20031;-74
2022/03/21 06:40:15;;;;;;;26.73;16.87;;;4.00;99.90;;;;;;5097118;27;20487;-74
2022/03/21 06:42:41;;;;;;;29.13;16.80;;;4.20;99.90;;;;;;5063859;27;20024;-73
2022/03/21 06:45:08;;;;;;;27.30;15.03;;;4.40;99.90;;;;;;5098810;27;20015;-75
2022/03/21 06:47:35;;;;;;;23.77;16.07;;;4.50;99.90;;;;;;5084394;27;20455;-75
2022/03/21 06:50:01;;;;;;;24.80;14.73;;;4.70;99.90;;;;;;5062381;27;20039;-75
2022/03/21 06:52:28;;;;;;;29.50;17.20;;;4.80;99.90;;;;;;5102048;27;20035;-75
2022/03/21 06:54:54;;;;;;;26.80;16.97;;;5.00;99.90;;;;;;5101576;27;20019;-75
2022/03/21 06:57:21;;;;;;;28.57;15.93;;;5.20;99.90;;;;;;5096940;27;20028;-74
2022/03/21 06:59:48;;;;;;;26.87;16.20;;;5.40;99.90;;;;;;5096370;27;21685;-78
2022/03/21 07:02:15;;;;;;;26.83;16.03;;;5.60;99.90;;;;;;5084664;27;22871;-74
2022/03/21 07:04:42;;;;;;;28.93;18.67;;;5.70;99.90;;;;;;5080648;28;20027;-75
2022/03/21 07:07:10;;;;;;;30.13;19.73;;;5.90;99.90;;;;;;5085174;28;20467;-74
2022/03/21 07:09:36;;;;;;;35.63;19.60;;;6.10;99.90;;;;;;5073908;27;20031;-74
2022/03/21 07:12:03;;;;;;;29.80;18.10;;;6.20;99.90;;;;;;5098626;27;20394;-74
2022/03/21 07:14:29;;;;;;;28.60;19.20;;;6.40;99.90;;;;;;5080315;28;20016;-73
2022/03/21 07:16:56;;;;;;;29.90;20.00;;;6.60;99.90;;;;;;5063643;28;20016;-74
2022/03/21 07:19:22;;;;;;;29.27;18.08;;;6.70;99.90;;;;;;5094506;27;20032;-74
2022/03/21 07:21:49;;;;;;;31.90;19.97;;;6.90;99.90;;;;;;5077927;28;20035;-74
2022/03/21 07:24:15;;;;;;;29.95;20.08;;;7.00;99.90;;;;;;5081177;27;20032;-74
2022/03/21 07:26:41;;;;;;;37.28;23.92;;;7.20;99.90;;;;;;5061690;27;20051;-74
2022/03/21 07:29:11;;;;;;;34.28;22.33;;;7.30;99.90;;;;;;5099476;27;20391;-74
2022/03/21 07:31:40;;;;;;;37.67;22.42;;;7.40;99.90;;;;;;5066031;28;20039;-74
2022/03/21 07:34:15;;;;;;;39.10;24.53;;;7.60;99.90;;;;;;5064356;28;20015;-74
2022/03/21 07:36:58;;;;;;;42.47;27.83;;;7.80;99.90;;;;;;5047432;28;20048;-74
2022/03/21 07:39:24;;;;;;;41.30;26.30;;;7.90;99.90;;;;;;5079957;27;20447;-74
2022/03/21 07:41:59;;;;;;;39.53;25.08;;;8.00;99.90;;;;;;5097076;27;20382;-74
2022/03/21 07:47:20;;;;;;;36.20;24.17;;;8.30;99.90;;;;;;5080214;28;20031;-75
2022/03/21 07:49:51;;;;;;;40.42;25.13;;;8.30;99.90;;;;;;5081053;27;20032;-74
2022/03/21 07:52:19;;;;;;;37.75;24.95;;;8.50;99.90;;;;;;5096869;27;20051;-74
2022/03/21 07:54:47;;;;;;;35.80;24.83;;;8.60;99.90;;;;;;5094514;27;20031;-75
2022/03/21 07:57:13;;;;;;;37.28;25.75;;;8.70;99.90;;;;;;5078803;28;20032;-75
2022/03/21 07:59:40;;;;;;;31.77;21.08;;;8.80;99.90;;;;;;5093960;27;20580;-74
2022/03/21 08:02:07;;;;;;;31.92;21.50;;;8.90;99.90;;;;;;5065295;28;20030;-74
2022/03/21 08:04:33;;;;;;;25.50;18.65;;;9.00;99.90;;;;;;5066020;28;20019;-74
2022/03/21 08:07:00;;;;;;;31.52;22.15;;;9.20;99.90;;;;;;5078851;27;20474;-75
2022/03/21 08:09:29;;;;;;;36.33;24.88;;;9.30;99.90;;;;;;5098668;27;20032;-74
2022/03/21 08:12:00;;;;;;;29.55;20.88;;;9.40;99.90;;;;;;5098262;27;20024;-73
2022/03/21 08:14:27;;;;;;;32.85;20.55;;;9.40;99.90;;;;;;5082118;28;20123;-74
2022/03/21 08:16:53;;;;;;;30.60;19.83;;;9.50;99.90;;;;;;5098574;27;20032;-75
2022/03/21 08:19:22;;;;;;;29.67;19.17;;;9.60;99.90;;;;;;5076141;28;20032;-75
2022/03/21 08:21:48;;;;;;;25.08;17.52;;;9.70;99.90;;;;;;5079599;28;20068;-75
2022/03/21 08:24:14;;;;;;;25.83;17.35;;;9.90;99.90;;;;;;5097196;27;20012;-76
2022/03/21 08:26:41;;;;;;;28.92;18.10;;;10.00;99.90;;;;;;5049147;28;20037;-77
2022/03/21 08:29:08;;;;;;;28.23;18.58;;;10.10;99.90;;;;;;5063439;28;20031;-76
2022/03/21 08:31:34;;;;;;;31.15;19.38;;;10.20;99.90;;;;;;5057821;28;20020;-76
2022/03/21 08:34:03;;;;;;;26.60;19.65;;;10.30;99.90;;;;;;5078497;28;20016;-76
2022/03/21 08:36:30;;;;;;;30.83;18.88;;;10.40;99.90;;;;;;5096972;27;20023;-75
2022/03/21 08:38:58;;;;;;;31.55;19.15;;;10.50;99.90;;;;;;5078995;28;20032;-76
2022/03/21 08:41:25;;;;;;;31.63;20.30;;;10.70;99.90;;;;;;5075342;28;20024;-74
2022/03/21 08:43:52;;;;;;;30.00;19.55;;;10.80;99.90;;;;;;5077968;28;20388;-75
2022/03/21 08:46:19;;;;;;;32.75;21.75;;;11.00;99.90;;;;;;5094824;28;20024;-75
2022/03/21 08:51:31;;;;;;;28.25;20.05;;;11.10;99.90;;;;;;5094806;28;20050;-77
2022/03/21 08:53:57;;;;;;;27.10;18.52;;;11.20;99.90;;;;;;5098447;28;20032;-76
2022/03/21 08:56:25;;;;;;;28.45;18.83;;;11.40;99.90;;;;;;5080049;28;20039;-76
2022/03/21 08:58:52;;;;;;;26.52;18.77;;;11.50;99.90;;;;;;5077327;28;20028;-76
2022/03/21 09:01:18;;;;;;;28.38;18.35;;;11.60;99.90;;;;;;5074261;28;20023;-76
2022/03/21 09:03:44;;;;;;;28.27;19.13;;;11.70;99.90;;;;;;5077845;28;20016;-76
2022/03/21 09:06:11;;;;;;;24.83;17.33;;;11.80;99.90;;;;;;5096357;28;20024;-76
2022/03/21 09:08:37;;;;;;;23.73;15.48;;;11.90;99.90;;;;;;5078889;28;20023;-76
2022/03/21 09:11:04;;;;;;;22.95;14.80;;;12.00;99.90;;;;;;5092869;28;20020;-78
2022/03/21 09:13:31;;;;;;;22.05;15.02;;;12.20;99.90;;;;;;5066506;28;20475;-76
2022/03/21 09:15:57;;;;;;;25.25;15.43;;;12.30;99.90;;;;;;5096201;28;20016;-76
2022/03/21 09:18:24;;;;;;;20.65;14.55;;;12.40;99.90;;;;;;5098517;28;20051;-76
2022/03/21 09:20:50;;;;;;;26.20;16.65;;;12.60;99.90;;;;;;5078383;28;20483;-76
2022/03/21 09:23:17;;;;;;;26.92;17.98;;;12.80;99.90;;;;;;5062577;28;20015;-77
2022/03/21 09:25:43;;;;;;;26.02;16.90;;;12.90;99.90;;;;;;5093052;28;20036;-76
2022/03/21 09:28:10;;;;;;;31.40;18.15;;;13.00;99.90;;;;;;5079304;28;20102;-77
2022/03/21 09:30:39;;;;;;;26.73;18.45;;;13.10;99.90;;;;;;5058392;28;20035;-76
2022/03/21 09:33:05;;;;;;;28.35;16.63;;;13.20;99.20;;;;;;5096600;28;20020;-76
2022/03/21 09:35:32;;;;;;;26.33;15.77;;;13.20;98.10;;;;;;5100478;28;20027;-77
2022/03/21 09:38:00;;;;;;;23.05;15.82;;;13.30;97.30;;;;;;5080538;28;20027;-76
2022/03/21 09:40:28;;;;;;;25.40;15.10;;;13.40;96.90;;;;;;5092836;28;20131;-76
2022/03/21 09:42:55;;;;;;;23.50;15.45;;;13.50;96.60;;;;;;5095360;28;20028;-77
2022/03/21 09:45:21;;;;;;;19.33;14.93;;;13.70;96.50;;;;;;5080985;28;20039;-76
2022/03/21 09:50:35;;;;;;;23.23;14.70;;;14.00;95.40;;;;;;5096150;27;20028;-76
2022/03/21 09:53:04;;;;;;;26.40;15.45;;;14.10;94.50;;;;;;5103022;27;20049;-76
2022/03/21 09:55:30;;;;;;;20.80;14.63;;;14.20;94.30;;;;;;5101814;27;20039;-76
2022/03/21 09:57:57;;;;;;;21.50;15.65;;;14.30;94.10;;;;;;5101193;27;20018;-75
2022/03/21 10:00:27;;;;;;;27.65;17.73;;;14.40;93.90;;;;;;5096857;27;20028;-75
2022/03/21 10:02:55;;;;;;;26.65;18.25;;;14.50;93.60;;;;;;5081205;28;20039;-76
2022/03/21 10:05:34;;;;;;;29.70;19.95;;;14.60;92.80;;;;;;5069399;27;20105;-76
2022/03/21 10:08:24;;;;;;;24.77;14.75;;;14.60;92.40;;;;;;5066140;28;20459;-76
2022/03/21 10:11:08;;;;;;;24.70;15.35;;;14.70;92.60;;;;;;5095577;27;20030;-76
2022/03/21 10:13:37;;;;;;;35.88;23.98;;;14.80;91.90;;;;;;5102327;27;20016;-76
2022/03/21 10:16:18;;;;;;;23.52;16.13;;;14.90;92.10;;;;;;5066655;28;20028;-76
2022/03/21 10:18:53;;;;;;;24.35;16.05;;;15.10;91.80;;;;;;5068554;27;20043;-76
2022/03/21 10:21:25;;;;;;;23.52;16.08;;;15.10;91.40;;;;;;5095882;27;20032;-76
2022/03/21 10:24:06;;;;;;;22.52;15.07;;;15.20;91.80;;;;;;5050114;28;20509;-77
2022/03/21 10:26:34;;;;;;;20.60;15.82;;;15.50;92.00;;;;;;5098561;27;20020;-76
2022/03/21 10:29:05;;;;;;;23.65;15.48;;;15.80;92.00;;;;;;5082872;27;20480;-75
2022/03/21 10:31:39;;;;;;;27.70;19.27;;;16.10;91.80;;;;;;5079233;28;20058;-76
2022/03/21 10:34:11;;;;;;;23.27;17.00;;;16.40;91.00;;;;;;5099251;27;20026;-76
2022/03/21 10:36:58;;;;;;;28.45;21.75;;;16.70;91.20;;;;;;5100554;27;20024;-77
2022/03/21 10:39:25;;;;;;;26.77;18.35;;;17.00;90.90;;;;;;5063377;28;20020;-74
2022/03/21 10:42:18;;;;;;;24.17;17.08;;;17.20;89.00;;;;;;5063610;28;20459;-75
2022/03/21 10:44:53;;;;;;;;;;;17.50;90.00;;;;;;5077863;28;20032;-75
2022/03/21 10:47:19;;;;;;;23.13;16.63;;;17.70;88.80;;;;;;5077759;27;20271;-75
2022/03/21 10:49:46;;;;;;;22.77;16.08;;;18.00;88.10;;;;;;5059050;27;20043;-75
2022/03/21 10:52:21;;;;;;;23.90;17.70;;;18.20;87.70;;;;;;5098044;27;20028;-75
2022/03/21 10:54:50;;;;;;;23.65;16.90;;;18.60;86.70;;;;;;5082086;28;20023;-77
2022/03/21 10:57:33;;;;;;;22.77;16.25;;;18.90;84.10;;;;;;5077003;28;20020;-75
2022/03/21 11:00:20;;;;;;;20.85;15.75;;;19.30;83.30;;;;;;5093479;27;20047;-75
2022/03/21 11:03:09;;;;;;;23.73;18.27;;;19.60;80.10;;;;;;5079838;28;20023;-75
2022/03/21 11:05:41;;;;;;;26.70;18.55;;;19.80;75.60;;;;;;5080392;27;20977;-75
2022/03/21 11:08:09;;;;;;;;;;;19.90;73.80;;;;;;5083087;28;20016;-74
2022/03/21 11:10:36;;;;;;;24.90;16.92;;;20.00;74.20;;;;;;5076258;28;19908;-74
2022/03/21 11:13:05;;;;;;;21.20;15.43;;;20.30;72.70;;;;;;5099721;27;20019;-75
2022/03/21 11:15:33;;;;;;;20.35;16.67;;;20.60;72.80;;;;;;5096792;28;20045;-75
2022/03/21 11:18:00;;;;;;;29.80;20.00;;;20.90;72.10;;;;;;5099778;27;20039;-73
2022/03/21 11:20:30;;;;;;;23.70;17.17;;;21.10;67.70;;;;;;5093652;27;20036;-75
2022/03/21 11:22:58;;;;;;;24.02;17.05;;;21.10;67.70;;;;;;5062118;28;20039;-75
2022/03/21 11:25:28;;;;;;;20.20;15.82;;;21.20;66.70;;;;;;5102630;27;20031;-74
2022/03/21 11:28:28;;;;;;;21.25;16.33;;;21.40;66.20;;;;;;5097245;27;20023;-75
2022/03/21 11:31:13;;;;;;;19.50;15.27;;;21.70;65.80;;;;;;5091998;27;20042;-75
2022/03/21 11:33:48;;;;;;;19.50;13.82;;;22.00;65.30;;;;;;5100590;27;20028;-74
2022/03/21 11:36:14;;;;;;;18.63;14.70;;;22.50;65.20;;;;;;5100992;27;20473;-75
2022/03/21 11:38:47;;;;;;;21.45;16.60;;;22.70;62.00;;;;;;5099426;27;20027;-75
2022/03/21 11:41:21;;;;;;;20.17;16.02;;;22.90;61.50;;;;;;5076989;28;20394;-75
2022/03/21 11:44:14;;;;;;;22.90;14.25;;;23.10;60.60;;;;;;5080011;27;20031;-74
2022/03/21 11:46:45;;;;;;;20.13;15.13;;;23.40;59.90;;;;;;5079133;28;20012;-76
2022/03/21 11:49:17;;;;;;;20.20;15.82;;;23.70;58.70;;;;;;5083904;27;20022;-76
2022/03/21 11:51:45;;;;;;;19.23;14.27;;;23.90;58.10;;;;;;5064453;27;20028;-76
2022/03/21 11:54:32;;;;;;;15.98;14.02;;;24.10;58.00;;;;;;5067132;28;20382;-77
2022/03/21 11:57:07;;;;;;;20.15;14.70;;;24.60;57.50;;;;;;5099322;27;20015;-75
2022/03/21 11:59:33;;;;;;;16.92;13.50;;;24.80;56.10;;;;;;5099068;27;20015;-75
2022/03/21 12:02:22;;;;;;;16.15;13.52;;;25.10;54.60;;;;;;5065688;28;20043;-75
2022/03/21 12:05:00;;;;;;;18.95;13.82;;;25.20;53.50;;;;;;5099857;27;20032;-75
2022/03/21 12:07:28;;;;;;;21.23;14.93;;;25.30;52.40;;;;;;5079211;28;20008;-74
2022/03/21 12:09:56;;;;;;;18.75;14.50;;;25.30;51.80;;;;;;5075922;27;20030;-75
2022/03/21 12:12:43;;;;;;;19.77;15.40;;;25.30;52.30;;;;;;5095266;27;20024;-74
2022/03/21 12:15:18;;;;;;;19.80;15.85;;;25.50;51.90;;;;;;5096981;27;21349;-75
2022/03/21 12:17:49;;;;;;;23.23;16.30;;;25.70;51.60;;;;;;5097880;27;20036;-75
2022/03/21 12:20:20;;;;;;;33.38;25.92;;;26.00;50.70;;;;;;5055767;27;20035;-75
2022/03/21 12:22:47;;;;;;;18.15;15.07;;;26.10;50.50;;;;;;5096388;27;20007;-74
2022/03/21 12:25:40;;;;;;;17.27;15.00;;;26.20;50.50;;;;;;5098654;27;20012;-74
2022/03/21 12:29:31;;;;;;;16.48;14.18;;;26.50;50.20;;;;;;5097709;27;20007;-74
2022/03/21 12:31:31;;;;;;;18.70;15.85;;;26.70;49.20;;;;;;5093856;28;20035;-74
2022/03/21 12:34:35;;;;;;;18.45;14.93;;;26.80;47.90;;;;;;5077745;28;20495;-74
2022/03/21 12:37:41;;;;;;;19.25;15.63;;;26.70;47.70;;;;;;5077675;28;20035;-74
2022/03/21 12:40:12;;;;;;;20.98;15.45;;;26.60;47.60;;;;;;5093102;28;20510;-74
2022/03/21 12:42:44;;;;;;;15.43;13.88;;;26.50;47.80;;;;;;5100960;28;20004;-74
2022/03/21 12:45:15;;;;;;;;;;;26.70;48.10;;;;;;5097514;28;20031;-74
2022/03/21 12:47:42;;;;;;;19.60;15.23;;;26.90;47.90;;;;;;5100038;28;20364;-75
2022/03/21 12:50:09;;;;;;;20.95;14.88;;;27.10;46.60;;;;;;5077333;28;20030;-75
2022/03/21 12:52:36;;;;;;;15.88;14.18;;;27.00;46.30;;;;;;5073778;28;20035;-74
2022/03/21 12:55:03;;;;;;;17.70;15.88;;;26.70;46.40;;;;;;5079853;28;20020;-74
2022/03/21 12:57:32;;;;;;;19.35;16.48;;;26.60;46.70;;;;;;5095194;28;20023;-76
2022/03/21 13:00:17;;;;;;;23.27;18.02;;;26.50;46.80;;;;;;5043500;28;20035;-75
2022/03/21 13:02:43;;;;;;;21.85;18.25;;;26.70;46.60;;;;;;5099079;28;20023;-75
2022/03/21 13:10:43;;;;;;;23.33;20.88;;;26.30;46.20;;;;;;5093131;28;20376;-74
2022/03/21 13:13:09;;;;;;;22.00;17.83;;;26.30;46.50;;;;;;5097826;28;20055;-74
2022/03/21 13:15:36;;;;;;;19.60;15.93;;;26.40;46.80;;;;;;5096004;28;20012;-75
2022/03/21 13:18:03;;;;;;;18.00;15.35;;;26.70;46.60;;;;;;5097468;28;20051;-75